createdAt,value
2022-12-11T00:02:52.909Z,61.38
2022-12-11T00:07:54.848Z,61.23
2022-12-11T00:12:56.762Z,61.08
2022-12-11T00:17:58.610Z,61.31
2022-12-11T00:23:00.428Z,61.39
2022-12-11T00:28:02.294Z,61.20
2022-12-11T00:33:04.162Z,61.28
2022-12-11T00:38:06.080Z,61.15
2022-12-11T00:43:07.957Z,61.40
2022-12-11T00:48:11.192Z,61.09
2022-12-11T00:53:13.054Z,61.01
2022-12-11T00:58:15.717Z,61.16
2022-12-11T01:03:18.178Z,60.96
2022-12-11T01:08:20.266Z,60.70
2022-12-11T01:13:22.108Z,60.63
2022-12-11T01:18:24.083Z,61.06
2022-12-11T01:23:25.973Z,60.83
2022-12-11T01:28:27.832Z,60.94
2022-12-11T01:33:29.753Z,60.77
2022-12-11T01:38:31.588Z,61.00
2022-12-11T01:43:33.434Z,60.85
2022-12-11T01:48:40.723Z,60.91
2022-12-11T01:53:50.092Z,60.83
2022-12-11T01:58:56.536Z,60.84
2022-12-11T02:03:58.925Z,60.82
2022-12-11T02:09:01.844Z,61.02
2022-12-11T02:14:28.424Z,61.01
2022-12-11T02:20:04.023Z,60.76
2022-12-11T02:25:44.558Z,60.60
2022-12-11T02:30:52.319Z,60.96
2022-12-11T02:35:55.140Z,60.93
2022-12-11T02:40:59.003Z,60.81
2022-12-11T02:46:04.209Z,60.77
2022-12-11T02:51:09.201Z,60.79
2022-12-11T02:56:21.141Z,60.99
2022-12-11T03:01:23.097Z,60.91
2022-12-11T03:06:32.523Z,61.09
2022-12-11T03:11:34.273Z,61.04
2022-12-11T03:16:47.358Z,61.09
2022-12-11T03:21:55.129Z,60.95
2022-12-11T03:27:11.045Z,60.63
2022-12-11T03:32:20.060Z,61.18
2022-12-11T03:37:24.216Z,61.21
2022-12-11T03:42:27.166Z,61.04
2022-12-11T03:47:30.220Z,60.79
2022-12-11T03:52:32.988Z,60.99
2022-12-11T03:57:37.844Z,61.02
2022-12-11T04:02:40.761Z,60.80
2022-12-11T04:07:42.631Z,60.85
2022-12-11T04:12:44.466Z,60.87
2022-12-11T04:18:04.721Z,60.99
2022-12-11T04:23:29.866Z,60.57
2022-12-11T04:28:31.828Z,60.87
2022-12-11T04:33:33.680Z,60.93
2022-12-11T04:38:35.638Z,60.86
2022-12-11T04:43:37.846Z,61.09
2022-12-11T04:48:40.055Z,60.98
2022-12-11T04:53:42.336Z,60.93
2022-12-11T04:58:45.319Z,60.58
2022-12-11T05:03:47.739Z,60.87
2022-12-11T05:08:49.532Z,61.01
2022-12-11T05:13:52.093Z,60.67
2022-12-11T05:18:54.531Z,61.22
2022-12-11T05:23:56.339Z,60.91
2022-12-11T05:28:58.199Z,60.97
2022-12-11T05:34:00.079Z,60.60
2022-12-11T05:39:04.067Z,60.56
2022-12-11T05:44:05.896Z,60.48
2022-12-11T05:49:08.194Z,60.49
2022-12-11T05:54:10.499Z,60.82
2022-12-11T05:59:12.332Z,60.51
2022-12-11T06:04:14.173Z,60.67
2022-12-11T06:09:17.126Z,60.52
2022-12-11T06:14:18.955Z,60.48
2022-12-11T06:19:20.793Z,60.44
2022-12-11T06:24:22.641Z,60.76
2022-12-11T06:29:24.510Z,61.18
2022-12-11T06:34:26.549Z,61.35
2022-12-11T06:39:28.342Z,61.64
2022-12-11T06:44:30.183Z,61.62
2022-12-11T06:49:31.997Z,61.87
2022-12-11T06:54:33.954Z,61.83
2022-12-11T06:59:35.867Z,62.02
2022-12-11T07:04:37.660Z,61.54
2022-12-11T07:09:41.165Z,61.28
2022-12-11T07:14:43.018Z,61.30
2022-12-11T07:19:44.896Z,61.61
2022-12-11T07:24:46.707Z,61.63
2022-12-11T07:29:48.559Z,61.41
2022-12-11T07:34:52.126Z,61.37
2022-12-11T07:39:54.150Z,61.38
2022-12-11T07:44:56.044Z,61.64
2022-12-11T07:49:57.866Z,61.29
2022-12-11T07:54:59.728Z,61.06
2022-12-11T08:00:01.568Z,61.23
2022-12-11T08:05:03.524Z,61.63
2022-12-11T08:10:05.767Z,61.43
2022-12-11T08:15:08.180Z,61.63
2022-12-11T08:20:11.290Z,61.06
2022-12-11T08:25:13.498Z,61.20
2022-12-11T08:30:15.743Z,60.91
2022-12-11T08:35:17.689Z,60.81
2022-12-11T08:40:20.398Z,61.17
2022-12-11T08:45:22.227Z,60.72
2022-12-11T08:50:24.021Z,60.64
2022-12-11T08:55:25.834Z,60.93
2022-12-11T09:00:27.727Z,60.68
2022-12-11T09:05:29.855Z,60.40
2022-12-11T09:10:32.078Z,60.55
2022-12-11T09:15:34.071Z,60.48
2022-12-11T09:20:36.170Z,60.67
2022-12-11T09:25:40.454Z,60.54
2022-12-11T09:30:42.318Z,60.02
2022-12-11T09:35:44.248Z,60.58
2022-12-11T09:40:46.141Z,60.37
2022-12-11T09:45:50.776Z,60.76
2022-12-11T09:50:55.210Z,60.60
2022-12-11T09:56:06.059Z,60.61
2022-12-11T10:01:26.458Z,60.57
2022-12-11T10:06:53.064Z,60.17
2022-12-11T10:12:22.060Z,60.40
2022-12-11T10:17:34.152Z,60.38
2022-12-11T10:22:36.559Z,60.65
2022-12-11T10:27:40.204Z,60.81
2022-12-11T10:32:53.848Z,60.30
2022-12-11T10:38:09.793Z,60.53
2022-12-11T10:43:12.635Z,60.17
2022-12-11T10:48:14.494Z,60.30
2022-12-11T10:53:22.469Z,60.01
2022-12-11T10:58:29.542Z,60.37
2022-12-11T11:03:33.286Z,60.10
2022-12-11T11:08:47.897Z,59.87
2022-12-11T11:13:50.127Z,60.64
2022-12-11T11:18:56.162Z,60.26
2022-12-11T11:23:58.336Z,60.29
2022-12-11T11:29:00.360Z,60.22
2022-12-11T11:34:06.727Z,60.00
2022-12-11T11:39:17.713Z,59.75
2022-12-11T11:44:39.625Z,59.37
2022-12-11T11:49:49.681Z,59.58
2022-12-11T11:55:02.218Z,59.39
2022-12-11T12:00:20.868Z,59.25
2022-12-11T12:05:31.054Z,59.13
2022-12-11T12:10:44.270Z,59.16
2022-12-11T12:15:56.280Z,58.96
2022-12-11T12:21:17.334Z,59.31
2022-12-11T12:26:21.868Z,58.88
2022-12-11T12:31:53.650Z,58.75
2022-12-11T12:37:00.385Z,58.92
2022-12-11T12:42:43.332Z,58.51
2022-12-11T12:47:53.217Z,57.70
2022-12-11T12:52:56.922Z,57.50
2022-12-11T12:58:05.227Z,56.80
2022-12-11T13:03:20.949Z,55.85
2022-12-11T13:08:28.928Z,56.64
2022-12-11T13:13:39.296Z,56.65
2022-12-11T13:18:42.310Z,57.26
2022-12-11T13:23:44.141Z,57.43
2022-12-11T13:28:49.321Z,57.24
2022-12-11T13:33:56.900Z,57.39
2022-12-11T13:39:06.879Z,57.26
2022-12-11T13:44:18.534Z,57.06
2022-12-11T13:49:34.540Z,56.67
2022-12-11T13:54:36.609Z,57.51
2022-12-11T13:59:43.019Z,57.16
2022-12-11T14:04:46.452Z,57.55
2022-12-11T14:09:48.347Z,57.78
2022-12-11T14:14:57.120Z,57.82
2022-12-11T14:20:01.953Z,57.45
2022-12-11T14:25:21.871Z,57.36
2022-12-11T14:30:29.872Z,57.35
2022-12-11T14:35:38.863Z,57.61
2022-12-11T14:40:44.464Z,57.86
2022-12-11T14:45:49.926Z,57.83
2022-12-11T14:50:55.319Z,57.99
2022-12-11T14:56:01.471Z,58.24
2022-12-11T15:01:06.461Z,58.31
2022-12-11T15:06:29.492Z,58.99
2022-12-11T15:11:32.872Z,58.69
2022-12-11T15:16:40.963Z,58.63
2022-12-11T15:21:42.800Z,59.23
2022-12-11T15:26:48.016Z,59.64
2022-12-11T15:32:08.710Z,60.08
2022-12-11T15:37:25.932Z,59.76
2022-12-11T15:42:39.890Z,59.46
2022-12-11T15:47:43.363Z,59.65
2022-12-11T15:52:46.422Z,59.77
2022-12-11T15:58:01.330Z,59.13
2022-12-11T16:03:03.194Z,59.72
2022-12-11T16:08:05.394Z,59.87
2022-12-11T16:13:07.224Z,59.50
2022-12-11T16:18:12.164Z,59.35
2022-12-11T16:23:16.446Z,59.72
2022-12-11T16:28:21.231Z,59.67
2022-12-11T16:33:23.080Z,59.71
2022-12-11T16:38:25.177Z,59.50
2022-12-11T16:43:27.300Z,59.84
2022-12-11T16:48:29.190Z,59.38
2022-12-11T16:53:31.117Z,59.56
2022-12-11T16:58:33.488Z,59.60
2022-12-11T17:03:35.293Z,60.10
2022-12-11T17:08:37.672Z,60.24
2022-12-11T17:13:39.523Z,60.17
2022-12-11T17:18:42.685Z,60.53
2022-12-11T17:23:45.374Z,60.58
2022-12-11T17:28:47.726Z,60.77
2022-12-11T17:33:50.067Z,60.24
2022-12-11T17:38:52.043Z,60.20
2022-12-11T17:43:55.915Z,60.77
2022-12-11T17:49:00.216Z,60.71
2022-12-11T17:54:02.314Z,60.66
2022-12-11T17:59:04.914Z,61.00
2022-12-11T18:04:07.104Z,60.86
2022-12-11T18:09:11.523Z,60.76
2022-12-11T18:14:17.213Z,60.46
2022-12-11T18:19:20.336Z,61.00
2022-12-11T18:24:23.001Z,61.04
2022-12-11T18:29:25.898Z,60.40
2022-12-11T18:34:27.894Z,60.77
2022-12-11T18:39:29.789Z,61.15
2022-12-11T18:44:31.667Z,60.71
2022-12-11T18:49:33.450Z,60.87
2022-12-11T18:54:35.575Z,60.34
2022-12-11T18:59:37.857Z,60.25
2022-12-11T19:04:39.687Z,60.71
2022-12-11T19:09:47.526Z,60.29
2022-12-11T19:14:49.568Z,60.90
2022-12-11T19:19:51.398Z,60.57
2022-12-11T19:24:53.199Z,60.88
2022-12-11T19:29:55.020Z,61.19
2022-12-11T19:34:56.829Z,61.31
2022-12-11T19:39:58.661Z,61.52
2022-12-11T19:45:00.478Z,61.22
2022-12-11T19:50:02.410Z,61.46
2022-12-11T19:55:06.285Z,61.77
2022-12-11T20:00:08.614Z,61.38
2022-12-11T20:05:14.634Z,61.16
2022-12-11T20:10:16.887Z,61.47
2022-12-11T20:15:20.726Z,61.19
2022-12-11T20:20:24.400Z,60.83
2022-12-11T20:25:27.840Z,61.08
2022-12-11T20:30:30.015Z,60.78
2022-12-11T20:35:32.289Z,60.87
2022-12-11T20:40:34.513Z,60.94
2022-12-11T20:45:36.504Z,60.62
2022-12-11T20:50:38.965Z,60.73
2022-12-11T20:55:42.614Z,61.14
2022-12-11T21:00:45.198Z,60.62
2022-12-11T21:05:47.427Z,61.09
2022-12-11T21:10:49.513Z,61.53
2022-12-11T21:15:54.150Z,61.30
2022-12-11T21:20:56.946Z,61.29
2022-12-11T21:25:59.898Z,61.53
2022-12-11T21:31:03.804Z,61.65
2022-12-11T21:36:07.062Z,61.46
2022-12-11T21:41:24.157Z,61.27
2022-12-11T21:46:29.144Z,61.42
2022-12-11T21:51:37.919Z,61.17
2022-12-11T21:56:42.662Z,61.17
2022-12-11T22:01:46.255Z,61.54
2022-12-11T22:06:48.230Z,61.86
2022-12-11T22:11:55.051Z,62.10
2022-12-11T22:16:59.946Z,62.29
2022-12-11T22:22:01.932Z,62.25
2022-12-11T22:27:04.326Z,62.23
2022-12-11T22:32:06.137Z,61.97
2022-12-11T22:37:07.977Z,62.07
2022-12-11T22:42:09.779Z,62.75
2022-12-11T22:47:11.711Z,62.67
2022-12-11T22:52:13.633Z,62.89
2022-12-11T22:57:15.498Z,62.91
2022-12-11T23:02:17.380Z,62.86
2022-12-11T23:07:19.228Z,63.04
2022-12-11T23:12:21.096Z,63.14
2022-12-11T23:17:23.242Z,63.00
2022-12-11T23:22:25.035Z,62.92
2022-12-11T23:27:26.867Z,62.93
2022-12-11T23:32:28.670Z,62.88
2022-12-11T23:37:30.463Z,63.11
2022-12-11T23:42:33.821Z,63.01
2022-12-11T23:47:35.604Z,63.14
2022-12-11T23:52:37.404Z,62.98
2022-12-11T23:57:39.376Z,62.96
